Terminal Aerodrome Forecast
Issued by NWS Chicago, IL

Home | Current Version | Previous Version | Graphics & Text | Print | Product List | Glossary On
Versions: 1 2 3 4 5 6 7 8 9 10 11 12 13 14 15 16 17 18 19 20 21 22 23 24 25 26 27 28 29 30 31 32 33
000
FTUS43 KLOT 180800 AAC
TAFRFD
TAF AMD
KRFD 180852Z 1809/1906 10005KT 2SM -DZ BR OVC004
      TEMPO 1809/1813 1/2SM FG VV002
     FM181400 VRB03KT 6SM BR BKN008
     FM181600 19008KT P6SM BKN015
     FM181900 20008KT P6SM SCT040 BKN200
     FM182200 21007KT P6SM SHRA VCTS SCT045CB
     FM190300 21008KT 6SM -TSRA SCT035CB BKN050=

USA.gov is the U.S. government's official web portal to all federal, state and local government web resources and services.